Time;durP1;ratioP1;P1;durP2;ratioP2;P2;SDS_P1;SDS_P2;PMS_P1;PMS_P2;Temp;Humidity;BMP_temperature;BMP_pressure;BME280_temperature;BME280_humidity;BME280_pressure;Samples;Min_cycle;Max_cycle;Signal;HPM_P1;HPM_P2
2022/09/25 00:00:36;;;;;;;2.90;1.05;;;7.60;99.90;;;;;;5034789;28;20158;-80
2022/09/25 00:03:02;;;;;;;1.33;0.95;;;7.60;99.90;;;;;;5018567;28;20046;-80
2022/09/25 00:05:28;;;;;;;4.07;1.65;;;7.60;99.90;;;;;;5018035;28;20697;-80
2022/09/25 00:07:55;;;;;;;1.30;0.95;;;7.60;99.90;;;;;;5019452;28;20081;-80
2022/09/25 00:10:24;;;;;;;1.52;0.85;;;7.60;99.90;;;;;;4998996;28;20111;-80
2022/09/25 00:12:50;;;;;;;4.50;1.50;;;7.60;99.90;;;;;;5009956;28;20048;-80
2022/09/25 00:15:16;;;;;;;1.50;0.77;;;7.60;99.90;;;;;;5035426;28;20506;-80
2022/09/25 00:17:42;;;;;;;2.00;1.20;;;7.60;99.90;;;;;;5068113;28;20092;-80
2022/09/25 00:20:09;;;;;;;1.50;0.93;;;7.80;99.90;;;;;;5034613;28;20099;-80
2022/09/25 00:22:35;;;;;;;1.13;0.75;;;7.60;99.90;;;;;;5000994;28;20391;-80
2022/09/25 00:25:01;;;;;;;3.03;1.10;;;7.60;99.90;;;;;;5018694;28;20041;-81
2022/09/25 00:27:27;;;;;;;1.98;1.10;;;7.60;99.90;;;;;;5018189;28;20091;-81
2022/09/25 00:29:53;;;;;;;2.40;0.90;;;7.60;99.90;;;;;;5001330;28;20044;-81
2022/09/25 00:32:19;;;;;;;2.22;1.02;;;7.60;99.90;;;;;;5034987;28;20037;-81
2022/09/25 00:34:45;;;;;;;1.73;0.70;;;7.60;99.90;;;;;;5014867;28;20046;-81
2022/09/25 00:37:10;;;;;;;1.42;0.80;;;7.50;99.90;;;;;;4997945;28;20510;-81
2022/09/25 00:39:36;;;;;;;1.85;0.90;;;7.50;99.90;;;;;;5014802;28;20077;-81
2022/09/25 00:42:02;;;;;;;2.17;0.98;;;7.50;99.90;;;;;;5045233;28;20061;-81
2022/09/25 00:44:52;;;;;;;4.00;1.50;;;7.50;99.90;;;;;;5018913;28;20077;-81
2022/09/25 00:47:46;;;;;;;1.77;1.20;;;7.50;99.90;;;;;;5034165;28;20042;-81
2022/09/25 00:50:24;;;;;;;1.30;0.70;;;7.50;99.90;;;;;;5050697;28;20055;-80
2022/09/25 00:52:53;;;;;;;1.02;0.75;;;7.40;99.90;;;;;;5027205;28;20120;-80
2022/09/25 00:55:21;;;;;;;4.38;1.33;;;8.20;99.90;;;;;;5067757;28;20487;-81
2022/09/25 00:57:51;;;;;;;2.72;0.75;;;7.40;99.90;;;;;;5021235;28;20040;-80
2022/09/25 01:00:17;;;;;;;2.25;1.13;;;7.60;99.90;;;;;;5053730;28;20048;-80
2022/09/25 01:02:48;;;;;;;1.75;0.88;;;7.30;99.90;;;;;;5047649;28;20041;-80
2022/09/25 01:05:18;;;;;;;0.95;0.77;;;7.20;99.90;;;;;;5037332;28;20167;-80
2022/09/25 01:07:47;;;;;;;1.95;0.95;;;8.30;99.90;;;;;;5033882;28;20049;-80
2022/09/25 01:10:15;;;;;;;1.08;0.65;;;7.90;99.90;;;;;;5033697;28;20065;-80
2022/09/25 01:12:43;;;;;;;0.75;0.60;;;7.40;99.90;;;;;;5033679;28;20395;-80
2022/09/25 01:15:11;;;;;;;0.93;0.60;;;7.20;99.90;;;;;;5034073;28;20041;-80
2022/09/25 01:17:42;;;;;;;1.60;0.60;;;7.50;99.90;;;;;;5066630;28;20041;-80
2022/09/25 01:20:39;;;;;;;1.48;0.73;;;7.10;99.90;;;;;;5033497;28;20041;-80
2022/09/25 01:23:32;;;;;;;1.52;0.93;;;7.10;99.90;;;;;;5032379;28;20103;-80
2022/09/25 01:26:35;;;;;;;0.85;0.75;;;7.10;99.90;;;;;;5020975;28;20056;-80
2022/09/25 01:29:16;;;;;;;2.40;0.70;;;7.10;99.90;;;;;;5048746;28;20077;-80
2022/09/25 01:31:51;;;;;;;1.30;0.80;;;7.10;99.90;;;;;;5033226;28;20049;-80
2022/09/25 01:34:44;;;;;;;0.77;0.52;;;7.10;99.90;;;;;;5025725;28;20083;-80
2022/09/25 01:37:38;;;;;;;0.55;0.45;;;7.10;99.90;;;;;;5031513;28;20041;-80
2022/09/25 01:40:32;;;;;;;2.80;1.00;;;7.10;99.90;;;;;;5016681;28;20365;-80
2022/09/25 01:43:16;;;;;;;1.08;0.63;;;7.10;99.90;;;;;;5016021;28;20061;-80
2022/09/25 01:45:58;;;;;;;1.75;0.60;;;7.10;99.90;;;;;;5022355;28;20049;-80
2022/09/25 01:48:30;;;;;;;0.95;0.60;;;7.20;99.90;;;;;;5017400;28;20049;-80
2022/09/25 01:51:22;;;;;;;1.75;0.68;;;7.20;99.90;;;;;;5032741;28;20041;-80
2022/09/25 01:53:53;;;;;;;2.63;0.60;;;7.30;99.90;;;;;;5047451;28;20086;-80
2022/09/25 01:56:31;;;;;;;3.42;1.33;;;7.80;99.90;;;;;;5017586;28;20392;-80
2022/09/25 01:59:07;;;;;;;3.45;0.90;;;7.50;99.90;;;;;;5003732;28;20132;-80
2022/09/25 02:01:38;;;;;;;1.63;1.13;;;7.60;99.90;;;;;;5028541;28;20076;-80
2022/09/25 02:04:22;;;;;;;2.08;1.15;;;8.60;99.90;;;;;;5052168;28;20056;-80
2022/09/25 02:06:50;;;;;;;0.75;0.65;;;7.80;99.90;;;;;;5026214;28;20049;-80
2022/09/25 02:09:28;;;;;;;1.30;0.90;;;7.80;99.90;;;;;;5023375;28;20044;-80
2022/09/25 02:11:58;;;;;;;1.50;0.80;;;7.70;99.90;;;;;;5065281;28;20045;-80
2022/09/25 02:14:37;;;;;;;2.13;1.23;;;7.80;99.90;;;;;;5035465;28;20511;-80
2022/09/25 02:17:07;;;;;;;3.17;1.02;;;7.80;99.90;;;;;;5020473;28;20040;-80
2022/09/25 02:22:28;;;;;;;2.15;0.82;;;7.90;99.90;;;;;;5039694;28;20099;-80
2022/09/25 02:25:10;;;;;;;0.55;0.50;;;7.80;99.90;;;;;;5040081;28;20094;-80
2022/09/25 02:27:36;;;;;;;1.30;0.70;;;7.80;99.90;;;;;;5032716;28;20185;-80
2022/09/25 02:30:02;;;;;;;2.33;0.90;;;7.80;99.90;;;;;;4999679;28;20128;-80
2022/09/25 02:32:30;;;;;;;0.90;0.68;;;7.70;99.90;;;;;;5049147;28;20052;-80
2022/09/25 02:34:58;;;;;;;2.65;0.95;;;7.60;99.90;;;;;;5017636;28;20060;-80
2022/09/25 02:37:25;;;;;;;0.85;0.70;;;7.60;99.90;;;;;;5014198;28;20168;-80
2022/09/25 02:39:54;;;;;;;3.67;0.75;;;7.50;99.90;;;;;;5012601;28;20057;-80
2022/09/25 02:42:37;;;;;;;1.60;0.70;;;7.50;99.90;;;;;;5012559;28;20068;-80
2022/09/25 02:45:16;;;;;;;2.17;0.90;;;7.40;99.90;;;;;;5031855;28;20392;-80
2022/09/25 02:47:57;;;;;;;1.65;0.80;;;7.30;99.90;;;;;;5020635;28;20056;-80
2022/09/25 02:50:26;;;;;;;0.73;0.57;;;7.30;99.90;;;;;;5036296;28;20091;-80
2022/09/25 02:53:19;;;;;;;1.25;0.80;;;7.30;99.90;;;;;;5069839;28;20337;-80
2022/09/25 02:55:59;;;;;;;1.13;0.80;;;7.20;99.90;;;;;;5036275;28;20064;-80
2022/09/25 02:58:38;;;;;;;1.95;0.80;;;7.70;99.90;;;;;;5040756;28;20372;-81
2022/09/25 03:01:07;;;;;;;0.70;0.55;;;7.10;99.90;;;;;;5038990;28;20044;-80
2022/09/25 03:03:36;;;;;;;1.85;0.80;;;7.20;99.90;;;;;;5010372;28;20045;-81
2022/09/25 03:06:03;;;;;;;2.60;0.63;;;7.00;99.90;;;;;;5019583;28;20037;-80
2022/09/25 03:08:42;;;;;;;1.23;0.55;;;7.00;99.90;;;;;;5043535;28;20048;-80
2022/09/25 03:11:13;;;;;;;0.80;0.52;;;7.20;99.90;;;;;;5036477;28;20053;-79
2022/09/25 03:13:40;;;;;;;1.10;0.55;;;7.00;99.90;;;;;;5035970;28;20395;-79
2022/09/25 03:16:14;;;;;;;1.45;0.50;;;7.00;99.90;;;;;;5020348;28;20068;-79
2022/09/25 03:18:40;;;;;;;2.17;0.70;;;7.00;99.90;;;;;;5044374;28;20044;-79
2022/09/25 03:21:06;;;;;;;1.35;0.80;;;7.40;99.90;;;;;;5020256;28;20038;-79
2022/09/25 03:23:32;;;;;;;1.92;1.00;;;7.00;99.90;;;;;;5002992;28;20038;-79
2022/09/25 03:25:58;;;;;;;0.50;0.50;;;7.00;99.90;;;;;;5036101;28;20179;-79
2022/09/25 03:28:24;;;;;;;1.45;0.90;;;6.90;99.90;;;;;;5035932;28;20037;-80
2022/09/25 03:31:02;;;;;;;2.28;0.80;;;7.00;99.90;;;;;;5019315;28;20050;-80
2022/09/25 03:33:32;;;;;;;0.88;0.70;;;7.00;99.90;;;;;;5018997;28;20041;-80
2022/09/25 03:36:08;;;;;;;1.30;0.90;;;7.10;99.90;;;;;;5019421;28;20048;-80
2022/09/25 03:38:34;;;;;;;1.45;0.90;;;7.20;99.90;;;;;;5035552;28;20033;-80
2022/09/25 03:41:01;;;;;;;2.42;0.77;;;7.40;99.90;;;;;;5035338;28;20488;-81
2022/09/25 03:43:32;;;;;;;2.20;1.10;;;8.20;99.90;;;;;;5035556;28;20045;-79
2022/09/25 03:45:58;;;;;;;1.45;0.82;;;7.80;99.90;;;;;;5019667;28;20053;-79
2022/09/25 03:48:23;;;;;;;3.92;0.82;;;7.80;99.90;;;;;;5019471;28;20048;-79
2022/09/25 03:50:49;;;;;;;2.30;0.60;;;8.00;99.90;;;;;;5035926;28;20146;-79
2022/09/25 03:53:17;;;;;;;0.57;0.45;;;8.20;99.90;;;;;;5036810;28;20499;-79
2022/09/25 03:55:47;;;;;;;1.27;0.73;;;8.30;99.90;;;;;;5034863;28;20099;-79
2022/09/25 03:58:15;;;;;;;0.35;0.35;;;8.30;99.90;;;;;;5052136;28;20033;-79
2022/09/25 04:00:41;;;;;;;0.40;0.25;;;8.40;99.90;;;;;;5068620;28;20085;-79
2022/09/25 04:03:06;;;;;;;0.35;0.20;;;8.50;99.90;;;;;;5035243;28;20124;-80
2022/09/25 04:05:33;;;;;;;0.45;0.30;;;8.60;99.90;;;;;;5018697;28;20433;-80
2022/09/25 04:08:00;;;;;;;0.88;0.45;;;8.40;99.90;;;;;;5019181;28;20041;-79
2022/09/25 04:10:27;;;;;;;0.90;0.68;;;8.40;99.90;;;;;;5051235;28;20392;-79
2022/09/25 04:12:53;;;;;;;0.30;0.30;;;8.30;99.90;;;;;;5053109;28;20045;-79
2022/09/25 04:15:22;;;;;;;0.47;0.47;;;8.30;99.90;;;;;;5048156;28;20052;-79
2022/09/25 04:17:48;;;;;;;1.60;0.40;;;8.80;99.90;;;;;;5023176;28;20033;-80
2022/09/25 04:20:14;;;;;;;0.40;0.40;;;8.60;99.90;;;;;;5054267;28;20048;-80
2022/09/25 04:22:39;;;;;;;0.43;0.30;;;8.50;99.90;;;;;;5031876;28;20034;-80
2022/09/25 04:25:06;;;;;;;1.45;0.47;;;8.40;99.90;;;;;;5035863;28;20037;-80
2022/09/25 04:27:32;;;;;;;0.32;0.30;;;8.40;99.90;;;;;;5014818;28;20387;-80
2022/09/25 04:29:57;;;;;;;0.20;0.20;;;8.50;99.90;;;;;;5051461;28;20034;-80
2022/09/25 04:35:07;;;;;;;1.83;0.63;;;8.80;99.90;;;;;;5067131;28;20426;-80
2022/09/25 04:37:33;;;;;;;0.73;0.30;;;8.70;99.90;;;;;;5043105;28;20098;-80
2022/09/25 04:39:59;;;;;;;1.70;0.28;;;8.70;99.90;;;;;;5037642;28;20053;-80
2022/09/25 04:42:24;;;;;;;0.38;0.28;;;8.70;99.90;;;;;;5037643;28;20102;-80
2022/09/25 04:44:55;;;;;;;1.00;0.30;;;8.80;99.90;;;;;;5041829;28;20053;-80
2022/09/25 04:47:26;;;;;;;1.73;0.77;;;8.70;99.90;;;;;;5037399;28;20037;-80
2022/09/25 04:49:51;;;;;;;1.20;0.65;;;8.80;99.90;;;;;;5033756;28;20037;-80
2022/09/25 04:52:18;;;;;;;0.32;0.30;;;8.90;99.90;;;;;;5018030;28;20048;-80
2022/09/25 04:54:45;;;;;;;0.40;0.40;;;9.00;99.90;;;;;;5025339;28;20037;-80
2022/09/25 04:57:18;;;;;;;2.47;0.47;;;9.10;99.90;;;;;;5034646;28;20041;-80
2022/09/25 04:59:44;;;;;;;0.70;0.43;;;9.20;99.90;;;;;;5033903;28;20112;-80
2022/09/25 05:02:11;;;;;;;0.32;0.30;;;9.30;99.90;;;;;;5013017;28;20044;-80
2022/09/25 05:04:37;;;;;;;0.80;0.80;;;9.40;99.90;;;;;;5034479;28;20486;-80
2022/09/25 05:07:02;;;;;;;0.47;0.30;;;9.50;99.90;;;;;;5027709;28;20042;-80
2022/09/25 05:09:29;;;;;;;0.75;0.75;;;9.50;99.90;;;;;;4998721;28;20041;-80
2022/09/25 05:11:55;;;;;;;0.68;0.50;;;9.60;99.90;;;;;;5006586;28;20029;-80
2022/09/25 05:14:21;;;;;;;0.50;0.50;;;9.70;99.90;;;;;;5020815;28;20046;-80
2022/09/25 05:16:47;;;;;;;2.97;0.80;;;9.60;99.90;;;;;;5013510;28;20062;-80
2022/09/25 05:19:13;;;;;;;0.28;0.28;;;9.50;99.90;;;;;;5026190;28;20038;-80
2022/09/25 05:21:39;;;;;;;2.08;0.50;;;9.50;99.90;;;;;;5011957;28;20119;-80
2022/09/25 05:24:07;;;;;;;2.15;0.73;;;9.50;99.90;;;;;;5040109;28;20042;-80
2022/09/25 05:26:33;;;;;;;0.40;0.40;;;9.50;99.90;;;;;;4993578;28;20046;-80
2022/09/25 05:29:00;;;;;;;0.35;0.30;;;9.40;99.90;;;;;;5024431;28;20139;-80
2022/09/25 05:31:26;;;;;;;0.52;0.30;;;9.30;99.90;;;;;;5017769;28;20121;-80
2022/09/25 05:33:52;;;;;;;0.22;0.22;;;9.30;99.90;;;;;;5028389;28;20076;-80
2022/09/25 05:36:19;;;;;;;0.77;0.50;;;9.30;99.90;;;;;;5048801;28;20048;-80
2022/09/25 05:38:45;;;;;;;1.95;0.70;;;9.30;99.90;;;;;;4996912;28;20125;-80
2022/09/25 05:41:11;;;;;;;1.17;0.85;;;9.40;99.90;;;;;;5015091;28;20069;-79
2022/09/25 05:43:46;;;;;;;2.65;0.70;;;9.40;99.90;;;;;;5031933;28;20053;-79
2022/09/25 05:46:13;;;;;;;1.83;0.80;;;9.40;99.90;;;;;;5033386;28;20413;-79
2022/09/25 05:48:39;;;;;;;0.95;0.47;;;9.50;99.90;;;;;;5005318;28;20037;-79
2022/09/25 05:51:05;;;;;;;2.33;0.45;;;9.70;99.90;;;;;;5034527;28;20107;-79
2022/09/25 05:53:31;;;;;;;0.75;0.52;;;9.90;99.90;;;;;;5036987;28;20044;-79
2022/09/25 05:56:02;;;;;;;2.15;0.90;;;9.80;99.90;;;;;;5018894;28;20033;-79
2022/09/25 05:58:29;;;;;;;0.90;0.30;;;10.00;99.90;;;;;;5029924;28;20033;-80
2022/09/25 06:01:00;;;;;;;2.15;0.35;;;9.90;99.90;;;;;;5034422;28;20052;-80
2022/09/25 06:03:28;;;;;;;2.58;0.85;;;9.90;99.90;;;;;;5016758;28;20037;-80
2022/09/25 06:06:03;;;;;;;0.60;0.40;;;9.90;99.90;;;;;;5016961;28;20050;-80
2022/09/25 06:08:31;;;;;;;1.58;0.45;;;10.00;99.90;;;;;;5029088;28;20064;-80
2022/09/25 06:11:00;;;;;;;0.90;0.50;;;10.00;99.90;;;;;;5036482;28;20100;-80
2022/09/25 06:13:25;;;;;;;0.55;0.50;;;10.80;99.90;;;;;;5033911;28;20052;-80
2022/09/25 06:15:52;;;;;;;0.73;0.40;;;9.90;99.90;;;;;;5032564;28;20033;-80
2022/09/25 06:18:20;;;;;;;1.83;0.57;;;10.10;99.90;;;;;;5032850;28;20033;-80
2022/09/25 06:20:47;;;;;;;0.73;0.47;;;10.80;99.90;;;;;;5015484;28;20045;-81
2022/09/25 06:23:13;;;;;;;0.73;0.50;;;12.00;99.90;;;;;;5012050;28;20038;-81
2022/09/25 06:25:39;;;;;;;0.68;0.43;;;13.30;99.90;;;;;;5013014;28;20056;-80
2022/09/25 06:28:06;;;;;;;1.83;0.70;;;14.40;99.90;;;;;;5015512;28;20047;-80
2022/09/25 06:30:35;;;;;;;1.70;0.70;;;15.50;99.90;;;;;;5015818;28;20053;-80
2022/09/25 06:33:08;;;;;;;0.73;0.45;;;16.60;99.90;;;;;;5015855;28;20053;-80
2022/09/25 06:35:42;;;;;;;0.57;0.57;;;17.50;99.90;;;;;;5032684;28;20558;-80
2022/09/25 06:38:11;;;;;;;1.67;0.68;;;18.20;99.90;;;;;;5017152;28;20048;-80
2022/09/25 06:40:39;;;;;;;0.90;0.43;;;19.00;99.90;;;;;;5016555;28;20045;-80
2022/09/25 06:43:13;;;;;;;2.75;0.77;;;19.60;99.90;;;;;;5016531;28;20106;-80
2022/09/25 06:45:38;;;;;;;1.70;0.60;;;20.30;99.90;;;;;;5016079;28;20061;-80
2022/09/25 06:48:08;;;;;;;1.00;0.75;;;20.80;99.90;;;;;;5016159;28;20049;-80
2022/09/25 06:50:55;;;;;;;1.13;0.40;;;21.40;99.90;;;;;;5032459;28;20044;-80
2022/09/25 06:53:23;;;;;;;0.85;0.38;;;22.00;99.90;;;;;;5027651;28;20033;-80
2022/09/25 06:55:49;;;;;;;1.10;0.52;;;22.60;99.90;;;;;;5015497;28;20037;-80
2022/09/25 06:58:20;;;;;;;0.43;0.38;;;23.20;99.50;;;;;;5022247;23;20103;-80
2022/09/25 07:00:48;;;;;;;0.20;0.20;;;23.50;98.70;;;;;;5031034;28;20446;-80
2022/09/25 07:05:59;;;;;;;1.38;0.63;;;24.30;96.30;;;;;;5030621;28;20553;-80
2022/09/25 07:08:26;;;;;;;0.57;0.25;;;24.70;95.20;;;;;;5032934;28;20060;-80
2022/09/25 07:10:53;;;;;;;0.20;0.20;;;24.80;94.90;;;;;;5031248;28;20049;-80
2022/09/25 07:13:25;;;;;;;0.30;0.25;;;25.10;93.80;;;;;;5031723;28;20045;-80
2022/09/25 07:16:09;;;;;;;2.50;0.63;;;25.10;93.30;;;;;;5031150;28;20046;-81
2022/09/25 07:18:34;;;;;;;1.60;0.88;;;25.50;92.00;;;;;;5000518;28;20387;-80
2022/09/25 07:21:01;;;;;;;3.30;0.50;;;26.00;91.60;;;;;;4995042;28;20052;-80
2022/09/25 07:23:27;;;;;;;1.35;0.75;;;26.10;91.70;;;;;;4997811;28;20034;-80
2022/09/25 07:25:53;;;;;;;0.98;0.82;;;26.20;91.10;;;;;;5015004;28;20131;-81
2022/09/25 07:28:19;;;;;;;1.05;0.28;;;26.20;90.30;;;;;;5032114;28;20045;-80
2022/09/25 07:30:45;;;;;;;0.82;0.30;;;25.80;90.10;;;;;;5015936;28;20056;-80
2022/09/25 07:33:11;;;;;;;1.45;0.25;;;24.60;90.50;;;;;;5018753;28;20547;-80
2022/09/25 07:35:40;;;;;;;0.20;0.20;;;23.40;92.10;;;;;;5017571;28;20431;-80
2022/09/25 07:38:07;;;;;;;1.55;0.47;;;23.20;94.10;;;;;;4986392;28;20044;-81
2022/09/25 07:40:34;;;;;;;2.72;0.80;;;23.70;93.80;;;;;;4983276;28;20073;-81
2022/09/25 07:43:00;;;;;;;0.60;0.40;;;24.00;92.20;;;;;;4983971;28;20125;-81
2022/09/25 07:45:28;;;;;;;3.03;0.57;;;24.10;92.10;;;;;;5018568;28;20140;-81
2022/09/25 07:48:02;;;;;;;1.10;0.45;;;23.60;91.90;;;;;;5017665;28;20045;-81
2022/09/25 07:50:29;;;;;;;0.63;0.20;;;22.60;92.10;;;;;;5015965;28;20033;-81
2022/09/25 07:52:56;;;;;;;1.50;0.47;;;21.60;93.30;;;;;;5000192;28;20120;-81
2022/09/25 07:55:22;;;;;;;3.20;0.47;;;20.70;94.40;;;;;;5018221;28;20037;-81
2022/09/25 07:57:50;;;;;;;0.80;0.20;;;21.10;97.30;;;;;;4997988;28;20045;-81
2022/09/25 08:00:17;;;;;;;0.63;0.28;;;22.30;96.50;;;;;;5014454;28;20137;-81
2022/09/25 08:02:45;;;;;;;2.65;0.57;;;23.70;94.50;;;;;;5015724;28;20038;-80
2022/09/25 08:05:12;;;;;;;2.20;0.63;;;24.90;92.80;;;;;;5018724;28;20041;-80
2022/09/25 08:07:41;;;;;;;2.33;0.50;;;26.00;91.60;;;;;;5001782;28;20083;-80
2022/09/25 08:10:07;;;;;;;3.60;0.77;;;27.00;90.40;;;;;;5017934;28;20049;-81
2022/09/25 08:12:39;;;;;;;0.98;0.52;;;;;;;;;;5017076;28;20397;-81
2022/09/25 08:15:13;;;;;;;1.08;0.40;;;28.50;85.40;;;;;;5004185;28;20040;-81
2022/09/25 08:17:46;;;;;;;1.48;0.63;;;29.00;86.60;;;;;;5018586;28;20210;-81
2022/09/25 08:20:15;;;;;;;1.95;0.70;;;28.00;82.20;;;;;;5017744;28;20096;-81
2022/09/25 08:22:42;;;;;;;0.90;0.40;;;27.50;85.10;;;;;;5018159;28;20468;-81
2022/09/25 08:25:11;;;;;;;1.35;0.50;;;26.70;89.80;;;;;;5002182;28;20194;-81
2022/09/25 08:27:40;;;;;;;2.58;0.52;;;26.40;87.50;;;;;;5001842;28;20064;-81
2022/09/25 08:30:12;;;;;;;2.55;0.40;;;25.70;87.60;;;;;;5001528;28;20046;-81
2022/09/25 08:32:39;;;;;;;0.28;0.28;;;25.10;87.60;;;;;;4984905;28;20511;-81
2022/09/25 08:35:07;;;;;;;1.45;0.68;;;24.00;89.60;;;;;;5002240;28;20052;-81
2022/09/25 08:37:33;;;;;;;5.97;0.82;;;22.80;91.50;;;;;;4984782;28;20043;-81
2022/09/25 08:40:19;;;;;;;1.40;0.55;;;21.40;93.50;;;;;;5001110;28;20073;-81
2022/09/25 08:42:53;;;;;;;0.82;0.30;;;20.10;93.50;;;;;;5016560;28;20143;-82
2022/09/25 08:51:08;;;;;;;2.15;0.55;;;17.30;99.20;;;;;;5033371;28;20034;-82
2022/09/25 08:53:36;;;;;;;0.32;0.22;;;16.80;99.90;;;;;;5001007;28;20392;-82
2022/09/25 08:56:16;;;;;;;0.80;0.25;;;16.50;99.90;;;;;;5000820;28;20172;-82
2022/09/25 08:58:52;;;;;;;1.30;0.45;;;16.30;99.90;;;;;;5002575;28;20056;-82
2022/09/25 09:01:37;;;;;;;0.82;0.40;;;16.10;99.90;;;;;;5017748;28;20041;-81
2022/09/25 09:04:18;;;;;;;2.17;0.52;;;16.00;99.90;;;;;;5016412;28;20087;-81
2022/09/25 09:06:47;;;;;;;1.40;0.43;;;16.00;99.90;;;;;;5017314;28;20042;-81
2022/09/25 09:09:24;;;;;;;1.02;0.20;;;16.10;99.90;;;;;;5000492;28;20048;-81
2022/09/25 09:12:22;;;;;;;0.40;0.30;;;16.40;99.90;;;;;;5017138;28;20158;-81
2022/09/25 09:14:54;;;;;;;2.60;0.75;;;17.10;99.90;;;;;;5021351;28;20124;-81
2022/09/25 09:17:26;;;;;;;2.22;0.40;;;17.90;99.90;;;;;;5017332;28;20041;-81
2022/09/25 09:20:13;;;;;;;0.80;0.35;;;18.60;99.90;;;;;;5033025;28;20524;-81
2022/09/25 09:22:45;;;;;;;0.30;0.30;;;19.00;99.90;;;;;;5016751;28;20081;-81
2022/09/25 09:25:51;;;;;;;0.93;0.20;;;19.30;99.90;;;;;;5017195;28;20041;-81
2022/09/25 09:28:42;;;;;;;2.55;0.40;;;19.60;99.90;;;;;;5033381;28;20124;-81
2022/09/25 09:33:54;;;;;;;2.13;0.45;;;19.80;99.90;;;;;;5029259;28;20053;-81
2022/09/25 09:36:45;;;;;;;0.68;0.40;;;20.00;99.90;;;;;;4999155;28;20123;-81
2022/09/25 09:39:41;;;;;;;0.68;0.35;;;21.30;99.90;;;;;;5000020;28;20103;-81
2022/09/25 09:42:17;;;;;;;0.70;0.20;;;22.10;97.60;;;;;;4975440;28;20072;-81
2022/09/25 09:44:49;;;;;;;0.20;0.20;;;21.90;97.90;;;;;;5016332;28;20045;-81
2022/09/25 09:47:24;;;;;;;1.60;0.60;;;22.00;98.60;;;;;;5015886;28;20055;-81
2022/09/25 09:50:08;;;;;;;0.88;0.43;;;23.30;99.00;;;;;;5016277;28;20049;-81
2022/09/25 09:52:41;;;;;;;1.75;0.50;;;24.50;94.80;;;;;;5016319;28;20049;-81
2022/09/25 09:55:38;;;;;;;1.50;0.60;;;24.40;93.40;;;;;;4999146;28;20533;-81
2022/09/25 09:58:09;;;;;;;0.35;0.30;;;24.00;94.70;;;;;;5015204;28;20093;-81
2022/09/25 10:00:37;;;;;;;2.20;0.38;;;24.00;94.20;;;;;;5015040;28;20064;-81
2022/09/25 10:03:26;;;;;;;1.27;0.20;;;24.30;94.30;;;;;;5016033;28;20380;-81
2022/09/25 10:05:57;;;;;;;11.27;1.75;;;24.00;93.20;;;;;;4998831;28;20092;-81
2022/09/25 10:08:23;;;;;;;0.82;0.20;;;24.60;92.30;;;;;;5015020;28;20042;-80
2022/09/25 10:10:52;;;;;;;1.10;0.30;;;25.40;92.90;;;;;;5015021;28;20491;-80
2022/09/25 10:13:36;;;;;;;0.32;0.30;;;26.50;90.20;;;;;;5016064;28;20041;-80
2022/09/25 10:16:05;;;;;;;1.25;0.40;;;27.30;84.60;;;;;;4999497;28;20042;-80
2022/09/25 10:19:02;;;;;;;0.55;0.43;;;28.30;88.20;;;;;;5015494;28;20434;-80
2022/09/25 10:21:47;;;;;;;0.40;0.20;;;29.70;80.20;;;;;;5011664;28;20395;-80
2022/09/25 10:24:44;;;;;;;1.08;0.45;;;29.70;81.40;;;;;;5015497;28;20450;-80
2022/09/25 10:27:19;;;;;;;1.17;0.35;;;29.60;77.00;;;;;;5015546;28;20124;-80
2022/09/25 10:29:45;;;;;;;0.38;0.30;;;27.80;77.90;;;;;;5015870;28;20034;-80
2022/09/25 10:32:11;;;;;;;1.20;0.20;;;25.90;81.70;;;;;;5015490;28;20361;-80
2022/09/25 10:34:39;;;;;;;0.60;0.30;;;24.80;86.20;;;;;;4995773;28;20403;-80
2022/09/25 10:37:20;;;;;;;1.88;0.30;;;25.20;89.00;;;;;;5007287;28;20038;-80
2022/09/25 10:40:01;;;;;;;2.22;0.75;;;26.40;87.40;;;;;;5015897;28;20399;-80
2022/09/25 10:42:41;;;;;;;0.20;0.20;;;27.40;83.40;;;;;;4998868;28;20037;-81
2022/09/25 10:45:21;;;;;;;0.35;0.20;;;27.20;78.10;;;;;;5015562;28;20111;-80
2022/09/25 10:50:35;;;;;;;0.17;0.10;;;25.50;82.30;;;;;;5015109;28;20048;-80
2022/09/25 10:53:03;;;;;;;1.10;0.45;;;24.60;81.20;;;;;;4999060;28;20047;-80
2022/09/25 10:55:35;;;;;;;3.33;0.68;;;23.70;83.30;;;;;;5014968;28;20029;-81
2022/09/25 10:58:10;;;;;;;0.10;0.10;;;22.80;86.90;;;;;;4998784;28;20041;-81
2022/09/25 11:00:51;;;;;;;0.73;0.40;;;21.80;86.70;;;;;;5015482;28;20373;-80
2022/09/25 11:03:31;;;;;;;1.70;0.38;;;21.00;90.30;;;;;;5014827;28;20121;-81
2022/09/25 11:06:02;;;;;;;0.63;0.20;;;20.30;91.20;;;;;;5000126;28;20041;-80
2022/09/25 11:08:33;;;;;;;1.25;0.55;;;20.20;91.30;;;;;;5018599;28;20041;-80
2022/09/25 11:11:01;;;;;;;1.92;0.40;;;20.00;92.10;;;;;;5019349;28;20064;-80
2022/09/25 11:13:35;;;;;;;0.75;0.40;;;19.70;92.60;;;;;;5018732;28;20036;-80
2022/09/25 11:16:08;;;;;;;0.77;0.35;;;19.70;92.90;;;;;;5019300;28;20464;-80
2022/09/25 11:18:36;;;;;;;0.50;0.25;;;19.70;92.00;;;;;;5018739;28;20045;-80
2022/09/25 11:21:04;;;;;;;0.20;0.20;;;19.70;93.30;;;;;;5018686;28;20289;-80
2022/09/25 11:23:36;;;;;;;1.95;0.50;;;19.70;93.70;;;;;;5018890;28;20048;-80
2022/09/25 11:26:10;;;;;;;0.73;0.20;;;19.70;92.30;;;;;;5018418;28;20055;-80
2022/09/25 11:28:43;;;;;;;0.20;0.20;;;19.60;92.40;;;;;;5001804;28;20064;-80
2022/09/25 11:31:15;;;;;;;0.98;0.30;;;19.50;92.60;;;;;;5018082;28;20095;-80
2022/09/25 11:34:06;;;;;;;4.53;0.50;;;19.30;92.80;;;;;;5018342;28;20049;-80
2022/09/25 11:36:59;;;;;;;4.15;0.50;;;19.20;93.10;;;;;;4998925;28;20052;-80
2022/09/25 11:42:42;;;;;;;0.32;0.30;;;18.90;95.00;;;;;;5017722;28;20479;-80
2022/09/25 11:45:34;;;;;;;2.83;0.55;;;18.70;95.20;;;;;;5002421;28;20475;-80
2022/09/25 11:48:11;;;;;;;3.25;0.47;;;18.50;95.60;;;;;;5018229;28;20033;-80
2022/09/25 11:50:48;;;;;;;0.90;0.55;;;18.50;95.50;;;;;;5001152;28;20507;-81
2022/09/25 11:53:51;;;;;;;1.85;0.40;;;18.50;96.80;;;;;;5001715;28;20037;-80
2022/09/25 11:56:28;;;;;;;0.30;0.30;;;18.50;95.60;;;;;;5018174;28;20555;-80
2022/09/25 11:59:37;;;;;;;3.70;0.90;;;18.30;95.90;;;;;;5017724;28;20088;-80
2022/09/25 12:03:01;;;;;;;2.70;0.90;;;18.30;97.10;;;;;;5017786;28;20498;-81
2022/09/25 12:05:44;;;;;;;2.40;1.63;;;18.30;98.10;;;;;;4986721;28;20049;-80
2022/09/25 12:08:18;;;;;;;0.30;0.30;;;18.40;98.10;;;;;;5017756;28;20042;-80
2022/09/25 12:11:06;;;;;;;1.42;0.35;;;18.40;98.00;;;;;;5016834;28;20045;-80
2022/09/25 12:13:37;;;;;;;0.28;0.25;;;18.50;97.50;;;;;;5001587;28;20041;-80
2022/09/25 12:16:25;;;;;;;0.65;0.40;;;18.60;98.40;;;;;;5018030;28;20120;-80
2022/09/25 12:19:07;;;;;;;1.55;0.32;;;18.80;97.00;;;;;;5001341;28;20179;-80
2022/09/25 12:21:42;;;;;;;1.38;0.43;;;18.90;96.90;;;;;;5017632;28;20053;-80
2022/09/25 12:24:25;;;;;;;1.17;0.35;;;19.00;95.20;;;;;;5018106;28;20360;-80
2022/09/25 12:27:00;;;;;;;0.50;0.15;;;19.10;96.70;;;;;;5017618;28;20500;-80
2022/09/25 12:29:49;;;;;;;0.90;0.65;;;19.30;96.10;;;;;;5000924;28;20033;-80
2022/09/25 12:32:52;;;;;;;3.00;0.60;;;19.50;94.60;;;;;;5012923;28;20085;-80
2022/09/25 12:35:39;;;;;;;2.25;0.20;;;19.90;96.50;;;;;;5001102;28;20081;-80
2022/09/25 12:38:16;;;;;;;1.35;0.20;;;20.90;93.50;;;;;;5017191;28;20041;-80
2022/09/25 12:40:54;;;;;;;0.10;0.10;;;21.70;92.50;;;;;;5017710;28;20049;-80
2022/09/25 12:44:14;;;;;;;0.10;0.10;;;22.40;91.10;;;;;;5000897;28;20164;-80
2022/09/25 12:46:48;;;;;;;1.17;0.13;;;22.90;88.30;;;;;;4938660;29;20613;-80
2022/09/25 12:49:41;;;;;;;0.08;0.08;;;23.00;86.20;;;;;;5033131;28;20091;-81
2022/09/25 12:52:16;;;;;;;1.55;0.15;;;23.20;90.10;;;;;;5000344;28;20045;-81
2022/09/25 12:55:18;;;;;;;0.43;0.13;;;23.60;84.60;;;;;;5003901;28;20046;-81
2022/09/25 12:58:06;;;;;;;1.17;0.28;;;23.70;84.70;;;;;;5016547;28;20037;-81
2022/09/25 13:00:34;;;;;;;0.30;0.22;;;23.80;88.30;;;;;;5016889;28;20041;-81
2022/09/25 13:03:10;;;;;;;1.55;0.47;;;24.10;83.30;;;;;;5015898;28;20045;-81
2022/09/25 13:05:57;;;;;;;0.63;0.20;;;24.10;84.20;;;;;;5016940;28;20049;-81
2022/09/25 13:08:52;;;;;;;0.25;0.25;;;23.90;83.30;;;;;;5000333;28;20370;-81
2022/09/25 13:11:32;;;;;;;1.97;0.40;;;24.00;83.50;;;;;;4999843;28;20136;-81
2022/09/25 13:14:01;;;;;;;0.55;0.28;;;23.70;78.40;;;;;;5016012;28;20484;-81
2022/09/25 13:16:27;;;;;;;0.25;0.25;;;23.50;82.50;;;;;;5017239;28;20044;-81
2022/09/25 13:19:22;;;;;;;1.10;0.40;;;23.30;81.60;;;;;;5000634;28;20059;-81
2022/09/25 13:21:48;;;;;;;0.30;0.10;;;23.30;83.30;;;;;;5016937;28;20098;-81
2022/09/25 13:24:17;;;;;;;0.10;0.10;;;23.30;79.60;;;;;;5016344;28;20187;-81
2022/09/25 13:26:52;;;;;;;0.55;0.22;;;23.20;81.60;;;;;;5016598;28;20057;-81
2022/09/25 13:29:34;;;;;;;0.90;0.30;;;22.90;82.40;;;;;;5016151;28;20037;-81
2022/09/25 13:32:16;;;;;;;0.03;0.03;;;22.70;82.50;;;;;;5016515;28;20041;-80
2022/09/25 13:34:42;;;;;;;0.25;0.22;;;21.90;81.70;;;;;;5015912;28;20053;-80
2022/09/25 13:37:11;;;;;;;2.72;0.40;;;21.40;83.00;;;;;;5016202;28;20090;-80
2022/09/25 13:42:32;;;;;;;2.08;0.47;;;21.00;86.00;;;;;;5015629;28;20046;-80
2022/09/25 13:45:16;;;;;;;0.63;0.30;;;21.00;88.40;;;;;;5015599;28;20116;-81
2022/09/25 13:47:50;;;;;;;2.17;0.60;;;20.50;87.50;;;;;;4980371;28;20046;-81
2022/09/25 13:50:21;;;;;;;0.57;0.50;;;20.10;87.10;;;;;;5013508;28;20044;-81